createdAt,value
2023-02-25T00:01:15.473Z,4.16
2023-02-25T00:03:42.347Z,4.16
2023-02-25T00:06:13.546Z,4.13
2023-02-25T00:08:43.853Z,4.14
2023-02-25T00:11:11.643Z,4.13
2023-02-25T00:13:40.581Z,4.13
2023-02-25T00:16:08.414Z,4.11
2023-02-25T00:18:35.477Z,4.13
2023-02-25T00:21:06.148Z,4.12
2023-02-25T00:23:32.690Z,4.14
2023-02-25T00:26:00.687Z,4.13
2023-02-25T00:28:28.197Z,4.11
2023-02-25T00:30:55.011Z,4.09
2023-02-25T00:33:21.664Z,4.05
2023-02-25T00:35:50.264Z,4.01
2023-02-25T00:38:17.389Z,3.99
2023-02-25T00:40:45.989Z,3.96
2023-02-25T00:43:12.492Z,3.97
2023-02-25T00:45:40.490Z,3.98
2023-02-25T00:48:07.844Z,3.98
2023-02-25T00:50:36.043Z,3.97
2023-02-25T00:53:02.500Z,3.97
2023-02-25T00:55:33.513Z,3.96
2023-02-25T00:58:01.361Z,3.97
2023-02-25T01:00:29.949Z,3.99
2023-02-25T01:02:58.167Z,4.02
2023-02-25T01:05:24.879Z,4.04
2023-02-25T01:07:52.788Z,4.08
2023-02-25T01:10:19.755Z,4.13
2023-02-25T01:12:46.415Z,4.15
2023-02-25T01:15:14.499Z,4.13
2023-02-25T01:17:41.108Z,4.10
2023-02-25T01:20:12.400Z,4.08
2023-02-25T01:22:41.853Z,4.08
2023-02-25T01:25:13.485Z,4.10
2023-02-25T01:27:40.769Z,4.12
2023-02-25T01:30:08.690Z,4.12
2023-02-25T01:32:35.495Z,4.13
2023-02-25T01:35:02.382Z,4.13
2023-02-25T01:37:29.711Z,4.17
2023-02-25T01:39:56.225Z,4.19
2023-02-25T01:42:24.036Z,4.20
2023-02-25T01:45:18.380Z,4.18
2023-02-25T01:47:50.244Z,4.11
2023-02-25T01:50:19.971Z,4.05
2023-02-25T01:52:47.147Z,3.98
2023-02-25T01:55:13.794Z,3.93
2023-02-25T01:57:40.459Z,3.89
2023-02-25T02:00:12.475Z,3.86
2023-02-25T02:02:39.958Z,3.82
2023-02-25T02:05:07.352Z,3.78
2023-02-25T02:07:33.854Z,3.75
2023-02-25T02:10:02.241Z,3.70
2023-02-25T02:12:33.879Z,3.67
2023-02-25T02:15:04.101Z,3.67
2023-02-25T02:17:41.741Z,3.67
2023-02-25T02:20:14.754Z,3.70
2023-02-25T02:22:51.100Z,3.73
2023-02-25T02:25:45.242Z,3.77
2023-02-25T02:28:38.402Z,3.82
2023-02-25T02:31:28.323Z,3.83
2023-02-25T02:34:46.053Z,3.86
2023-02-25T02:37:40.314Z,3.90
2023-02-25T02:40:19.600Z,3.93
2023-02-25T02:43:26.063Z,3.94
2023-02-25T02:46:30.527Z,3.95
2023-02-25T02:49:21.400Z,3.96
2023-02-25T02:52:00.032Z,3.96
2023-02-25T02:54:37.453Z,3.95
2023-02-25T02:57:08.901Z,3.95
2023-02-25T02:59:42.864Z,3.94
2023-02-25T03:02:17.401Z,3.93
2023-02-25T03:04:48.776Z,3.91
2023-02-25T03:07:17.881Z,3.89
2023-02-25T03:09:53.489Z,3.85
2023-02-25T03:12:20.229Z,3.85
2023-02-25T03:14:47.357Z,3.88
2023-02-25T03:17:22.275Z,3.90
2023-02-25T03:19:59.951Z,3.92
2023-02-25T03:22:33.364Z,3.87
2023-02-25T03:25:08.772Z,3.85
2023-02-25T03:27:38.652Z,3.80
2023-02-25T03:30:13.020Z,3.74
2023-02-25T03:32:47.073Z,3.72
2023-02-25T03:35:17.324Z,3.68
2023-02-25T03:37:48.919Z,3.68
2023-02-25T03:40:17.880Z,3.66
2023-02-25T03:42:55.454Z,3.66
2023-02-25T03:45:24.475Z,3.66
2023-02-25T03:47:52.064Z,3.67
2023-02-25T03:50:24.083Z,3.66
2023-02-25T03:52:55.357Z,3.66
2023-02-25T03:55:47.428Z,3.65
2023-02-25T03:58:15.248Z,3.66
2023-02-25T04:00:44.236Z,3.66
2023-02-25T04:03:12.511Z,3.66
2023-02-25T04:05:39.115Z,3.67
2023-02-25T04:08:15.721Z,3.66
2023-02-25T04:10:43.964Z,3.64
2023-02-25T04:13:12.371Z,3.65
2023-02-25T04:15:39.157Z,3.64
2023-02-25T04:18:05.950Z,3.64
2023-02-25T04:20:33.457Z,3.63
2023-02-25T04:23:00.761Z,3.64
2023-02-25T04:25:27.826Z,3.64
2023-02-25T04:27:54.511Z,3.63
2023-02-25T04:30:21.074Z,3.63
2023-02-25T04:32:47.759Z,3.64
2023-02-25T04:35:14.534Z,3.64
2023-02-25T04:37:42.162Z,3.63
2023-02-25T04:40:14.219Z,3.64
2023-02-25T04:42:40.988Z,3.61
2023-02-25T04:45:09.734Z,3.62
2023-02-25T04:47:36.699Z,3.61
2023-02-25T04:50:04.288Z,3.59
2023-02-25T04:52:30.931Z,3.58
2023-02-25T04:54:57.421Z,3.56
2023-02-25T04:57:23.850Z,3.54
2023-02-25T04:59:50.417Z,3.52
2023-02-25T05:02:16.936Z,3.51
2023-02-25T05:04:43.555Z,3.47
2023-02-25T05:07:10.424Z,3.43
2023-02-25T05:09:36.930Z,3.38
2023-02-25T05:12:04.055Z,3.35
2023-02-25T05:14:32.852Z,3.32
2023-02-25T05:16:59.504Z,3.28
2023-02-25T05:19:26.060Z,3.28
2023-02-25T05:21:53.958Z,3.27
2023-02-25T05:24:23.492Z,3.27
2023-02-25T05:26:51.322Z,3.26
2023-02-25T05:29:17.946Z,3.26
2023-02-25T05:31:44.665Z,3.26
2023-02-25T05:34:11.314Z,3.27
2023-02-25T05:36:37.858Z,3.28
2023-02-25T05:39:04.463Z,3.29
2023-02-25T05:41:30.946Z,3.29
2023-02-25T05:43:58.176Z,3.29
2023-02-25T05:46:25.694Z,3.28
2023-02-25T05:48:52.574Z,3.28
2023-02-25T05:51:22.661Z,3.29
2023-02-25T05:53:50.416Z,3.26
2023-02-25T05:56:19.773Z,3.24
2023-02-25T05:58:48.522Z,3.23
2023-02-25T06:01:27.530Z,3.22
2023-02-25T06:03:58.610Z,3.22
2023-02-25T06:06:28.514Z,3.22
2023-02-25T06:08:54.969Z,3.18
2023-02-25T06:11:31.537Z,3.17
2023-02-25T06:13:59.683Z,3.13
2023-02-25T06:16:31.853Z,3.12
2023-02-25T06:19:01.072Z,3.09
2023-02-25T06:21:27.947Z,3.07
2023-02-25T06:23:54.474Z,3.06
2023-02-25T06:26:21.281Z,3.03
2023-02-25T06:28:48.023Z,3.01
2023-02-25T06:31:17.403Z,2.90
2023-02-25T06:33:45.603Z,2.86
2023-02-25T06:36:12.729Z,2.85
2023-02-25T06:38:39.676Z,2.85
2023-02-25T06:41:08.787Z,2.85
2023-02-25T06:43:35.819Z,2.86
2023-02-25T06:46:11.209Z,2.86
2023-02-25T06:48:37.845Z,2.90
2023-02-25T06:51:09.072Z,2.92
2023-02-25T06:53:40.610Z,2.94
2023-02-25T06:56:08.369Z,2.95
2023-02-25T06:58:36.076Z,2.98
2023-02-25T07:01:10.014Z,2.99
2023-02-25T07:03:37.038Z,3.05
2023-02-25T07:06:03.991Z,3.07
2023-02-25T07:08:31.125Z,3.10
2023-02-25T07:11:10.226Z,3.12
2023-02-25T07:13:37.005Z,3.12
2023-02-25T07:16:03.808Z,3.14
2023-02-25T07:18:30.355Z,3.14
2023-02-25T07:20:58.253Z,3.14
2023-02-25T07:23:24.838Z,3.12
2023-02-25T07:25:51.423Z,3.13
2023-02-25T07:28:17.886Z,3.14
2023-02-25T07:30:44.493Z,3.10
2023-02-25T07:33:11.520Z,3.07
2023-02-25T07:35:38.040Z,3.04
2023-02-25T07:38:04.453Z,3.01
2023-02-25T07:40:31.100Z,2.99
2023-02-25T07:42:57.541Z,2.97
2023-02-25T07:45:24.025Z,2.96
2023-02-25T07:47:53.182Z,3.00
2023-02-25T07:50:19.683Z,3.00
2023-02-25T07:52:46.139Z,3.00
2023-02-25T07:55:12.706Z,3.02
2023-02-25T07:57:39.130Z,3.02
2023-02-25T08:00:10.274Z,3.00
2023-02-25T08:02:39.640Z,2.99
2023-02-25T08:05:07.206Z,2.97
2023-02-25T08:07:33.710Z,2.97
2023-02-25T08:10:00.201Z,2.96
2023-02-25T08:12:26.916Z,2.98
2023-02-25T08:14:53.419Z,2.99
2023-02-25T08:17:19.886Z,3.07
2023-02-25T08:19:46.352Z,3.11
2023-02-25T08:22:12.840Z,3.16
2023-02-25T08:24:39.775Z,3.26
2023-02-25T08:27:08.691Z,3.31
2023-02-25T08:29:40.763Z,3.32
2023-02-25T08:32:08.381Z,3.35
2023-02-25T08:34:35.165Z,3.36
2023-02-25T08:37:01.648Z,3.35
2023-02-25T08:39:29.203Z,3.41
2023-02-25T08:41:55.675Z,3.41
2023-02-25T08:44:22.554Z,3.46
2023-02-25T08:46:49.205Z,3.46
2023-02-25T08:49:15.694Z,3.50
2023-02-25T08:51:42.184Z,3.53
2023-02-25T08:54:12.787Z,3.58
2023-02-25T08:56:44.213Z,3.68
2023-02-25T08:59:13.188Z,3.72
2023-02-25T09:01:46.041Z,3.75
2023-02-25T09:04:17.921Z,3.81
2023-02-25T09:06:47.338Z,3.85
2023-02-25T09:09:15.059Z,3.91
2023-02-25T09:11:43.032Z,3.96
2023-02-25T09:14:10.411Z,4.00
2023-02-25T09:16:37.061Z,4.09
2023-02-25T09:19:03.919Z,4.16
2023-02-25T09:21:30.436Z,4.22
2023-02-25T09:23:58.215Z,4.29
2023-02-25T09:26:25.005Z,4.25
2023-02-25T09:28:52.329Z,4.29
2023-02-25T09:31:19.512Z,4.28
2023-02-25T09:33:48.856Z,4.29
2023-02-25T09:36:17.235Z,4.28
2023-02-25T09:38:45.409Z,4.20
2023-02-25T09:41:24.389Z,4.01
2023-02-25T09:44:02.005Z,3.71
2023-02-25T09:46:31.095Z,3.62
2023-02-25T09:49:07.056Z,3.61
2023-02-25T09:51:39.176Z,3.44
2023-02-25T09:54:27.660Z,3.31
2023-02-25T09:56:56.612Z,3.29
2023-02-25T09:59:24.504Z,3.22
2023-02-25T10:02:03.394Z,3.11
2023-02-25T10:04:38.054Z,3.03
2023-02-25T10:07:15.606Z,3.12
2023-02-25T10:09:56.417Z,3.18
2023-02-25T10:12:38.242Z,3.25
2023-02-25T10:15:32.630Z,3.32
2023-02-25T10:18:25.970Z,3.41
2023-02-25T10:21:07.696Z,3.53
2023-02-25T10:23:54.804Z,3.64
2023-02-25T10:26:35.156Z,3.78
2023-02-25T10:29:08.284Z,3.89
2023-02-25T10:31:35.617Z,3.89
2023-02-25T10:34:19.436Z,4.02
2023-02-25T10:36:53.614Z,4.26
2023-02-25T10:39:20.086Z,4.47
2023-02-25T10:41:46.590Z,4.55
2023-02-25T10:44:13.512Z,4.62
2023-02-25T10:47:01.474Z,4.56
2023-02-25T10:49:30.409Z,4.54
2023-02-25T10:52:04.941Z,4.48
2023-02-25T10:54:44.961Z,4.46
2023-02-25T10:57:17.705Z,4.44
2023-02-25T10:59:45.475Z,4.48
2023-02-25T11:02:25.878Z,4.53
2023-02-25T11:04:53.723Z,4.70
2023-02-25T11:07:41.928Z,4.74
2023-02-25T11:10:26.990Z,4.78
2023-02-25T11:12:57.051Z,4.73
2023-02-25T11:15:43.553Z,4.74
2023-02-25T11:18:22.004Z,4.64
2023-02-25T11:20:54.184Z,4.69
2023-02-25T11:23:28.323Z,4.59
2023-02-25T11:25:55.415Z,4.45
2023-02-25T11:28:53.981Z,4.24
2023-02-25T11:31:24.513Z,4.25
2023-02-25T11:33:57.387Z,4.30
2023-02-25T11:36:29.321Z,4.45
2023-02-25T11:39:07.856Z,4.50
2023-02-25T11:41:34.328Z,4.49
2023-02-25T11:44:17.886Z,4.58
2023-02-25T11:46:51.374Z,4.51
2023-02-25T11:49:34.317Z,4.55
2023-02-25T11:52:13.754Z,4.82
2023-02-25T11:54:46.433Z,4.86
2023-02-25T11:57:34.051Z,4.92
2023-02-25T12:00:26.587Z,4.54
2023-02-25T12:03:10.599Z,4.53
2023-02-25T12:05:56.001Z,4.50
2023-02-25T12:08:22.370Z,4.54
2023-02-25T12:11:18.355Z,4.73
2023-02-25T12:14:11.358Z,4.85
2023-02-25T12:16:50.238Z,4.83
2023-02-25T12:19:37.093Z,4.63
2023-02-25T12:22:22.565Z,4.58
2023-02-25T12:24:58.726Z,4.54
2023-02-25T12:27:42.254Z,4.48
2023-02-25T12:30:21.501Z,4.27
2023-02-25T12:33:19.382Z,4.18
2023-02-25T12:36:03.829Z,4.19
2023-02-25T12:39:06.165Z,4.18
2023-02-25T12:41:57.860Z,4.02
2023-02-25T12:44:45.470Z,3.97
2023-02-25T12:47:26.234Z,3.92
2023-02-25T12:50:11.616Z,3.81
2023-02-25T12:52:50.405Z,3.73
2023-02-25T12:55:28.952Z,3.77
2023-02-25T12:58:37.625Z,3.85
2023-02-25T13:01:33.636Z,3.99
2023-02-25T13:04:14.169Z,4.02
2023-02-25T13:07:14.848Z,4.10
2023-02-25T13:10:04.245Z,4.22
2023-02-25T13:12:49.727Z,4.28
2023-02-25T13:15:20.440Z,4.23
2023-02-25T13:17:56.444Z,4.30
2023-02-25T13:20:36.867Z,4.18
2023-02-25T13:23:18.496Z,3.99
2023-02-25T13:26:05.786Z,3.85
2023-02-25T13:29:02.138Z,2.96
2023-02-25T13:31:55.535Z,2.37
2023-02-25T13:34:46.854Z,2.09
2023-02-25T13:37:21.970Z,1.83
2023-02-25T13:40:16.969Z,1.66
2023-02-25T13:43:08.777Z,1.56
2023-02-25T13:45:53.942Z,1.53
2023-02-25T13:48:54.616Z,1.53
2023-02-25T13:51:42.900Z,1.56
2023-02-25T13:54:42.075Z,1.65
2023-02-25T13:57:40.015Z,1.75
2023-02-25T14:00:53.482Z,1.86
2023-02-25T14:03:44.925Z,1.94
2023-02-25T14:06:26.226Z,1.99
2023-02-25T14:09:18.247Z,2.03
2023-02-25T14:12:00.485Z,2.05
2023-02-25T14:14:51.701Z,2.13
2023-02-25T14:17:46.081Z,2.18
2023-02-25T14:20:40.917Z,2.19
2023-02-25T14:23:23.022Z,2.22
2023-02-25T14:26:33.200Z,2.28
2023-02-25T14:29:11.305Z,2.36
2023-02-25T14:31:56.472Z,2.43
2023-02-25T14:34:50.420Z,2.51
2023-02-25T14:37:40.512Z,2.45
2023-02-25T14:40:56.466Z,2.50
2023-02-25T14:43:28.622Z,2.55
2023-02-25T14:45:59.454Z,2.62
2023-02-25T14:48:30.440Z,2.64
2023-02-25T14:51:03.072Z,2.62
2023-02-25T14:54:21.759Z,2.55
2023-02-25T14:57:15.642Z,2.55
2023-02-25T14:59:45.343Z,2.56
2023-02-25T15:02:32.766Z,2.59
2023-02-25T15:05:10.001Z,2.62
2023-02-25T15:08:09.190Z,2.73
2023-02-25T15:11:08.467Z,2.75
2023-02-25T15:14:01.930Z,2.73
2023-02-25T15:16:47.037Z,2.71
2023-02-25T15:19:39.960Z,2.75
2023-02-25T15:22:26.691Z,2.72
2023-02-25T15:25:14.266Z,2.63
2023-02-25T15:27:45.932Z,2.62
2023-02-25T15:30:22.739Z,2.67
2023-02-25T15:33:27.310Z,2.65
2023-02-25T15:35:57.873Z,2.70
2023-02-25T15:38:56.214Z,2.74
2023-02-25T15:41:31.054Z,2.71
2023-02-25T15:44:02.609Z,2.71
2023-02-25T15:46:48.187Z,2.74
2023-02-25T15:49:35.717Z,2.81
2023-02-25T15:52:04.916Z,2.82
2023-02-25T15:54:31.300Z,2.83
2023-02-25T15:57:24.641Z,2.80
2023-02-25T15:59:57.499Z,2.75
2023-02-25T16:02:27.191Z,2.75
2023-02-25T16:04:55.832Z,2.76
2023-02-25T16:07:31.087Z,2.63
2023-02-25T16:10:00.927Z,2.60
2023-02-25T16:12:29.056Z,2.71
2023-02-25T16:14:58.070Z,2.82
2023-02-25T16:17:34.358Z,2.84
2023-02-25T16:20:46.546Z,2.92
2023-02-25T16:23:15.108Z,2.96
2023-02-25T16:26:03.039Z,3.02
2023-02-25T16:28:48.600Z,3.02
2023-02-25T16:31:21.651Z,2.99
2023-02-25T16:34:05.813Z,2.86
2023-02-25T16:36:44.257Z,2.76
2023-02-25T16:39:21.452Z,2.67
2023-02-25T16:41:48.268Z,2.65
2023-02-25T16:44:24.894Z,2.65
2023-02-25T16:46:53.579Z,2.69
2023-02-25T16:49:28.531Z,2.75
2023-02-25T16:51:56.247Z,2.81
2023-02-25T16:54:29.591Z,2.91
2023-02-25T16:57:00.396Z,2.97
2023-02-25T16:59:31.620Z,2.94
2023-02-25T17:02:05.949Z,2.42
2023-02-25T17:04:35.554Z,2.02
2023-02-25T17:07:35.499Z,1.82
2023-02-25T17:10:04.512Z,1.69
2023-02-25T17:12:47.505Z,1.61
2023-02-25T17:15:22.749Z,1.59
2023-02-25T17:17:53.373Z,1.58
2023-02-25T17:20:24.521Z,1.62
2023-02-25T17:22:52.428Z,1.62
2023-02-25T17:25:20.496Z,1.66
2023-02-25T17:27:49.910Z,1.64
2023-02-25T17:30:40.981Z,1.68
2023-02-25T17:33:25.749Z,1.70
2023-02-25T17:35:57.152Z,1.67
2023-02-25T17:38:25.129Z,1.68
2023-02-25T17:40:55.189Z,1.69
2023-02-25T17:43:36.983Z,1.72
2023-02-25T17:46:28.580Z,1.75
2023-02-25T17:48:59.595Z,1.75
2023-02-25T17:51:37.385Z,1.79
2023-02-25T17:54:19.850Z,1.82
2023-02-25T17:56:54.593Z,1.82
2023-02-25T17:59:41.799Z,1.82
2023-02-25T18:02:36.617Z,1.84
2023-02-25T18:05:13.624Z,1.85
2023-02-25T18:07:44.733Z,1.86
2023-02-25T18:10:23.432Z,1.88
2023-02-25T18:12:50.609Z,1.91
2023-02-25T18:15:23.163Z,1.93
2023-02-25T18:17:53.143Z,1.96
2023-02-25T18:20:30.159Z,1.99
2023-02-25T18:23:00.462Z,2.00
2023-02-25T18:25:42.404Z,1.95
2023-02-25T18:28:14.413Z,1.92
2023-02-25T18:30:41.396Z,1.88
2023-02-25T18:33:11.522Z,1.81
2023-02-25T18:35:43.186Z,1.76
2023-02-25T18:38:18.932Z,1.70
2023-02-25T18:40:46.100Z,1.64
2023-02-25T18:43:17.972Z,1.58
2023-02-25T18:45:45.437Z,1.59
2023-02-25T18:48:12.625Z,1.55
2023-02-25T18:50:41.931Z,1.51
2023-02-25T18:53:17.583Z,1.50
2023-02-25T18:55:44.381Z,1.56
2023-02-25T18:58:15.493Z,1.59
2023-02-25T19:00:44.457Z,1.60
2023-02-25T19:03:15.925Z,1.56
2023-02-25T19:05:42.780Z,1.52
2023-02-25T19:08:17.490Z,1.51
2023-02-25T19:10:45.441Z,1.56
2023-02-25T19:13:44.202Z,1.63
2023-02-25T19:16:10.868Z,1.68
2023-02-25T19:18:38.138Z,1.73
2023-02-25T19:21:06.752Z,1.76
2023-02-25T19:23:33.630Z,1.79
2023-02-25T19:26:00.801Z,1.84
2023-02-25T19:28:27.666Z,1.86
2023-02-25T19:30:54.932Z,1.86
2023-02-25T19:33:21.747Z,1.82
2023-02-25T19:35:48.823Z,1.76
2023-02-25T19:38:18.669Z,1.68
2023-02-25T19:40:46.689Z,1.62
2023-02-25T19:43:15.284Z,1.58
2023-02-25T19:45:43.136Z,1.61
2023-02-25T19:48:13.313Z,1.69
2023-02-25T19:50:41.441Z,1.76
2023-02-25T19:53:09.005Z,1.83
2023-02-25T19:55:35.637Z,1.91
2023-02-25T19:58:02.331Z,1.97
2023-02-25T20:00:29.327Z,2.03
2023-02-25T20:02:56.309Z,2.07
2023-02-25T20:05:23.944Z,2.13
2023-02-25T20:07:51.046Z,2.16
2023-02-25T20:10:18.109Z,2.14
2023-02-25T20:12:45.942Z,2.10
2023-02-25T20:15:14.313Z,2.00
2023-02-25T20:17:42.475Z,1.92
2023-02-25T20:20:10.744Z,1.82
2023-02-25T20:22:39.163Z,1.75
2023-02-25T20:25:07.784Z,1.69
2023-02-25T20:27:37.117Z,1.68
2023-02-25T20:30:04.715Z,1.66
2023-02-25T20:32:31.362Z,1.64
2023-02-25T20:34:58.115Z,1.61
2023-02-25T20:37:31.248Z,1.51
2023-02-25T20:39:58.911Z,1.43
2023-02-25T20:42:29.369Z,1.41
2023-02-25T20:44:57.165Z,1.42
2023-02-25T20:47:34.959Z,1.42
2023-02-25T20:50:02.603Z,1.39
2023-02-25T20:52:29.368Z,1.34
2023-02-25T20:54:56.163Z,1.29
2023-02-25T20:57:24.343Z,1.28
2023-02-25T20:59:51.206Z,1.31
2023-02-25T21:02:18.062Z,1.32
2023-02-25T21:04:44.731Z,1.29
2023-02-25T21:07:11.558Z,1.26
2023-02-25T21:09:38.326Z,1.21
2023-02-25T21:12:05.708Z,1.15
2023-02-25T21:14:32.756Z,1.10
2023-02-25T21:16:59.616Z,1.04
2023-02-25T21:19:28.065Z,0.96
2023-02-25T21:21:55.338Z,0.90
2023-02-25T21:24:22.210Z,0.83
2023-02-25T21:26:49.265Z,0.75
2023-02-25T21:29:16.313Z,0.72
2023-02-25T21:31:43.295Z,0.70
2023-02-25T21:34:13.128Z,0.65
2023-02-25T21:36:41.146Z,0.62
2023-02-25T21:39:09.468Z,0.60
2023-02-25T21:41:37.335Z,0.53
2023-02-25T21:44:04.035Z,0.47
2023-02-25T21:46:30.614Z,0.42
2023-02-25T21:48:57.587Z,0.37
2023-02-25T21:51:26.856Z,0.35
2023-02-25T21:53:55.403Z,0.35
2023-02-25T21:56:23.072Z,0.34
2023-02-25T21:58:54.093Z,0.36
2023-02-25T22:01:23.578Z,0.35
2023-02-25T22:03:50.446Z,0.32
2023-02-25T22:06:17.794Z,0.31
2023-02-25T22:08:45.636Z,0.34
2023-02-25T22:11:14.847Z,0.33
2023-02-25T22:13:43.060Z,0.29
2023-02-25T22:16:10.864Z,0.30
2023-02-25T22:18:38.240Z,0.32
2023-02-25T22:21:12.454Z,0.36
2023-02-25T22:23:40.073Z,0.35
2023-02-25T22:26:09.076Z,0.32
2023-02-25T22:28:36.205Z,0.25
2023-02-25T22:31:03.661Z,0.23
2023-02-25T22:33:32.859Z,0.20
2023-02-25T22:36:02.001Z,0.15
2023-02-25T22:38:30.442Z,0.13
2023-02-25T22:40:56.990Z,0.09
2023-02-25T22:43:25.151Z,0.02
2023-02-25T22:45:51.666Z,-0.02
2023-02-25T22:48:18.650Z,-0.05
2023-02-25T22:50:50.000Z,-0.07
2023-02-25T22:53:16.901Z,-0.11
2023-02-25T22:55:44.204Z,-0.11
2023-02-25T22:58:10.881Z,-0.15
2023-02-25T23:00:41.465Z,-0.17
2023-02-25T23:03:09.733Z,-0.14
2023-02-25T23:05:37.099Z,-0.11
2023-02-25T23:08:05.392Z,-0.12
2023-02-25T23:10:32.037Z,-0.14
2023-02-25T23:13:08.036Z,-0.12
2023-02-25T23:15:36.403Z,-0.10
2023-02-25T23:18:04.197Z,-0.12
2023-02-25T23:20:32.531Z,-0.14
2023-02-25T23:23:04.839Z,-0.18
2023-02-25T23:25:33.052Z,-0.22
2023-02-25T23:27:59.851Z,-0.23
2023-02-25T23:30:26.772Z,-0.24
2023-02-25T23:32:53.883Z,-0.24
2023-02-25T23:35:20.400Z,-0.25
2023-02-25T23:37:47.145Z,-0.27
2023-02-25T23:40:14.099Z,-0.24
2023-02-25T23:42:42.153Z,-0.22
2023-02-25T23:45:10.709Z,-0.16
2023-02-25T23:47:38.306Z,-0.10
2023-02-25T23:50:06.887Z,0.00
2023-02-25T23:52:34.088Z,0.11
2023-02-25T23:55:00.738Z,0.22
2023-02-25T23:57:27.186Z,0.25
2023-02-25T23:59:53.705Z,0.22
